Time;durP1;ratioP1;P1;durP2;ratioP2;P2;SDS_P1;SDS_P2;PMS_P1;PMS_P2;Temp;Humidity;BMP_temperature;BMP_pressure;BME280_temperature;BME280_humidity;BME280_pressure;Samples;Min_cycle;Max_cycle;Signal;HPM_P1;HPM_P2
2021/11/01 00:00:37;;;;;;;12.77;8.13;;;;;;;7.83;49.68;93955.09;4964289;28;20497;-75
2021/11/01 00:03:04;;;;;;;12.68;8.02;;;;;;;7.56;49.88;93926.69;4958814;28;20067;-75
2021/11/01 00:05:29;;;;;;;13.75;7.82;;;;;;;7.66;50.18;93947.69;4959323;28;20066;-76
2021/11/01 00:07:54;;;;;;;16.33;8.27;;;;;;;7.63;49.98;93953.56;4971072;28;20217;-75
2021/11/01 00:10:21;;;;;;;12.02;7.60;;;;;;;7.58;50.01;93951.00;4957056;28;20081;-75
2021/11/01 00:12:46;;;;;;;13.85;7.93;;;;;;;7.52;49.91;93931.00;4969331;28;20058;-76
2021/11/01 00:15:12;;;;;;;16.17;9.25;;;;;;;7.66;50.07;93960.13;4956137;28;20125;-75
2021/11/01 00:17:38;;;;;;;14.32;8.75;;;;;;;7.61;49.92;93939.06;4960397;28;20135;-75
2021/11/01 00:20:06;;;;;;;15.07;9.43;;;;;;;7.73;49.74;93954.50;4970094;28;20066;-75
2021/11/01 00:22:33;;;;;;;18.10;9.93;;;;;;;7.71;49.83;93955.56;4963209;28;20045;-75
2021/11/01 00:24:58;;;;;;;14.95;8.95;;;;;;;7.66;50.23;93946.91;4959931;28;20729;-76
2021/11/01 00:27:24;;;;;;;14.48;8.38;;;;;;;7.64;50.32;93949.84;4964884;28;20108;-76
2021/11/01 00:29:49;;;;;;;11.50;6.75;;;;;;;7.51;50.25;93934.72;4964462;28;20471;-75
2021/11/01 00:32:15;;;;;;;11.10;8.02;;;;;;;7.57;49.90;93925.63;4965292;28;20050;-75
2021/11/01 00:34:41;;;;;;;14.23;8.35;;;;;;;7.66;49.84;93946.91;4963688;28;22592;-75
2021/11/01 00:37:07;;;;;;;15.48;8.60;;;;;;;7.54;50.14;93939.41;4956831;28;20030;-75
2021/11/01 00:39:33;;;;;;;13.00;7.57;;;;;;;7.30;50.34;93914.94;4960414;28;20097;-75
2021/11/01 00:41:58;;;;;;;14.80;7.32;;;;;;;7.25;50.51;93925.59;4968313;28;20038;-75
2021/11/01 00:44:23;;;;;;;13.50;8.27;;;;;;;7.33;50.46;93924.97;4964383;28;20050;-75
2021/11/01 00:46:49;;;;;;;15.93;9.32;;;;;;;7.12;50.91;93916.56;4970135;28;20049;-76
2021/11/01 00:49:14;;;;;;;16.25;8.05;;;;;;;7.23;50.43;93919.84;4968449;28;20066;-75
2021/11/01 00:51:43;;;;;;;16.65;9.18;;;;;;;7.45;50.15;93938.50;4961505;28;20444;-75
2021/11/01 00:54:09;;;;;;;12.18;7.88;;;;;;;7.37;50.08;93907.44;4961652;28;20042;-75
2021/11/01 00:56:37;;;;;;;13.15;8.55;;;;;;;7.48;50.31;93923.94;4969052;28;20592;-75
2021/11/01 00:59:03;;;;;;;15.35;9.10;;;;;;;7.44;50.48;93918.41;4965910;28;20137;-76
2021/11/01 01:01:32;;;;;;;14.43;9.05;;;;;;;7.45;50.72;93908.63;4965148;28;20026;-75
2021/11/01 01:03:57;;;;;;;14.68;8.85;;;;;;;7.33;51.10;93917.03;4970969;28;20027;-75
2021/11/01 01:06:22;;;;;;;16.55;9.93;;;;;;;7.18;51.10;93904.84;4968516;28;20394;-75
2021/11/01 01:08:48;;;;;;;14.80;8.73;;;;;;;7.11;51.43;93911.56;4965868;28;20042;-75
2021/11/01 01:11:13;;;;;;;14.07;8.38;;;;;;;7.12;50.89;93887.47;4968688;28;20042;-76
2021/11/01 01:13:39;;;;;;;14.80;8.05;;;;;;;7.11;50.89;93882.47;4968041;28;20050;-75
2021/11/01 01:18:38;;;;;;;12.95;8.32;;;;;;;7.36;50.66;93894.50;4959318;28;20034;-75
2021/11/01 01:23:52;;;;;;;15.40;8.55;;;;;;;7.35;51.01;93892.91;4964394;28;20081;-76
2021/11/01 01:26:25;;;;;;;13.93;9.15;;;;;;;7.42;50.41;93891.47;4966712;28;20532;-75
2021/11/01 01:28:51;;;;;;;15.07;9.15;;;;;;;7.27;50.52;93862.63;4964387;28;20355;-75
2021/11/01 01:31:17;;;;;;;12.98;7.47;;;;;;;7.36;50.32;93874.09;4963479;28;20037;-75
2021/11/01 01:33:42;;;;;;;15.63;8.32;;;;;;;7.43;50.46;93884.31;4966635;28;20050;-75
2021/11/01 01:36:07;;;;;;;14.82;8.38;;;;;;;7.37;50.55;93873.03;4961881;28;20046;-75
2021/11/01 01:38:33;;;;;;;15.93;8.52;;;;;;;7.42;50.21;93878.25;4962372;28;20126;-76
2021/11/01 01:41:15;;;;;;;12.85;8.32;;;;;;;7.44;50.17;93876.06;4965454;28;20049;-75
2021/11/01 01:43:46;;;;;;;18.42;9.15;;;;;;;7.32;50.18;93851.97;4965849;28;20038;-75
2021/11/01 01:46:12;;;;;;;15.52;8.57;;;;;;;7.51;49.95;93865.91;4960678;28;20161;-75
2021/11/01 01:48:38;;;;;;;15.05;7.65;;;;;;;7.45;50.12;93860.97;4962502;28;20539;-74
2021/11/01 01:51:05;;;;;;;11.85;8.10;;;;;;;7.31;50.14;93834.50;4967705;28;20030;-74
2021/11/01 01:53:31;;;;;;;14.60;7.25;;;;;;;7.38;50.25;93834.94;4962483;28;20060;-75
2021/11/01 01:55:56;;;;;;;14.88;8.65;;;;;;;7.30;50.07;93823.13;4963039;28;20046;-74
2021/11/01 01:58:26;;;;;;;16.15;8.38;;;;;;;7.36;50.03;93828.34;4966871;28;20502;-74
2021/11/01 02:01:10;;;;;;;13.68;8.63;;;;;;;7.43;49.95;93828.75;4968581;28;20019;-74
2021/11/01 02:03:38;;;;;;;13.88;8.50;;;;;;;7.33;50.41;93850.88;4957696;28;20468;-74
2021/11/01 02:06:09;;;;;;;13.23;8.38;;;;;;;7.27;50.46;93830.88;4961543;28;20133;-75
2021/11/01 02:08:43;;;;;;;13.20;8.27;;;;;;;7.12;50.52;93825.84;4960661;28;20504;-75
2021/11/01 02:11:14;;;;;;;14.15;7.70;;;;;;;7.34;50.30;93852.44;4964427;28;20055;-75
2021/11/01 02:13:44;;;;;;;14.77;7.53;;;;;;;7.28;50.31;93845.69;4959997;28;20046;-75
2021/11/01 02:16:15;;;;;;;12.55;7.93;;;;;;;7.13;50.50;93838.00;4961096;28;20046;-75
2021/11/01 02:18:48;;;;;;;15.02;7.97;;;;;;;7.20;50.52;93843.69;4962787;28;20050;-75
2021/11/01 02:21:37;;;;;;;15.30;9.15;;;;;;;7.22;50.39;93846.84;4964830;28;20073;-75
2021/11/01 02:24:10;;;;;;;19.95;9.25;;;;;;;7.17;50.41;93850.34;4967687;28;20058;-75
2021/11/01 02:26:36;;;;;;;13.30;6.78;;;;;;;7.06;50.44;93832.28;4977506;28;20047;-75
2021/11/01 02:29:03;;;;;;;16.75;9.43;;;;;;;7.21;50.45;93840.75;4971492;28;20070;-75
2021/11/01 02:31:29;;;;;;;15.00;8.02;;;;;;;7.16;50.53;93851.44;4966299;28;20077;-75
2021/11/01 02:33:55;;;;;;;14.32;9.13;;;;;;;7.11;50.54;93848.09;4960831;28;20885;-74
2021/11/01 02:36:22;;;;;;;19.25;9.20;;;;;;;7.08;50.91;93832.81;4957485;28;20049;-75
2021/11/01 02:38:50;;;;;;;17.90;9.88;;;;;;;7.17;50.42;93860.16;4966418;28;20069;-75
2021/11/01 02:41:27;;;;;;;15.35;9.02;;;;;;;7.39;50.42;93856.84;4960353;28;20058;-76
2021/11/01 02:43:58;;;;;;;14.93;9.35;;;;;;;7.04;50.21;93850.34;4960286;28;20046;-75
2021/11/01 02:46:25;;;;;;;15.57;8.95;;;;;;;7.02;50.65;93855.09;4962138;28;20022;-75
2021/11/01 02:48:53;;;;;;;16.67;9.40;;;;;;;6.94;50.76;93861.84;4962883;28;20026;-74
2021/11/01 02:51:21;;;;;;;15.27;9.38;;;;;;;6.81;51.01;93834.28;4962718;28;20038;-75
2021/11/01 02:53:48;;;;;;;14.30;7.90;;;;;;;6.93;51.22;93854.19;4963108;28;20050;-75
2021/11/01 02:56:14;;;;;;;11.45;7.85;;;;;;;6.99;50.79;93850.41;4965040;28;20544;-75
2021/11/01 02:58:41;;;;;;;15.02;9.00;;;;;;;6.95;50.72;93838.81;4959755;28;20330;-74
2021/11/01 03:01:13;;;;;;;13.98;8.18;;;;;;;7.12;50.54;93852.31;4966690;28;20540;-75
2021/11/01 03:03:39;;;;;;;14.60;8.48;;;;;;;6.93;51.00;93848.91;4958029;28;20049;-75
2021/11/01 03:06:06;;;;;;;15.02;8.98;;;;;;;6.93;50.76;93849.69;4971315;28;20057;-75
2021/11/01 03:08:33;;;;;;;19.75;10.32;;;;;;;6.94;50.78;93853.13;4961724;28;20050;-74
2021/11/01 03:11:00;;;;;;;19.02;10.02;;;;;;;6.68;50.98;93837.66;4964165;28;20047;-74
2021/11/01 03:13:28;;;;;;;19.63;10.90;;;;;;;6.82;51.17;93841.13;4962193;28;20037;-75
2021/11/01 03:15:58;;;;;;;17.63;10.30;;;;;;;6.79;51.01;93840.94;4963585;28;20033;-75
2021/11/01 03:18:30;;;;;;;17.88;11.25;;;;;;;6.79;51.36;93849.66;4962838;28;20391;-75
2021/11/01 03:20:57;;;;;;;20.23;11.20;;;;;;;6.75;50.82;93814.28;4963662;28;20121;-75
2021/11/01 03:23:33;;;;;;;18.15;10.30;;;;;;;6.55;51.84;93832.31;4953919;28;20548;-75
2021/11/01 03:26:05;;;;;;;17.50;10.63;;;;;;;6.56;51.56;93818.81;4963358;28;20054;-75
2021/11/01 03:28:33;;;;;;;20.65;11.52;;;;;;;6.68;51.83;93836.88;4959622;28;20026;-76
2021/11/01 03:31:01;;;;;;;24.10;11.75;;;;;;;6.73;51.58;93834.94;4959423;28;20038;-74
2021/11/01 03:33:33;;;;;;;15.23;10.38;;;;;;;6.33;52.18;93814.41;4959704;28;20116;-75
2021/11/01 03:36:00;;;;;;;19.70;10.75;;;;;;;6.42;52.38;93813.47;4960829;28;20135;-75
2021/11/01 03:38:26;;;;;;;21.63;11.63;;;;;;;6.43;52.59;93832.75;4962677;28;20254;-74
2021/11/01 03:40:52;;;;;;;19.48;10.85;;;;;;;6.36;52.29;93813.84;4963136;28;20549;-75
2021/11/01 03:43:29;;;;;;;22.27;12.15;;;;;;;6.49;52.29;93838.75;4963985;28;20517;-75
2021/11/01 03:45:58;;;;;;;19.85;11.10;;;;;;;6.56;52.30;93829.38;4967240;28;20042;-75
2021/11/01 03:48:24;;;;;;;17.70;10.32;;;;;;;6.48;52.50;93827.38;4961739;28;20057;-75
2021/11/01 03:51:11;;;;;;;16.65;8.55;;;;;;;6.59;52.17;93830.66;4963131;28;20381;-75
2021/11/01 03:53:38;;;;;;;14.90;8.68;;;;;;;6.56;52.29;93829.38;4962732;28;20057;-74
2021/11/01 03:56:05;;;;;;;14.25;7.95;;;;;;;6.47;52.40;93815.25;4966968;28;20447;-75
2021/11/01 03:58:31;;;;;;;15.68;8.90;;;;;;;6.42;52.57;93810.03;4965111;28;20311;-75
2021/11/01 04:00:57;;;;;;;14.73;8.05;;;;;;;6.33;52.55;93798.53;4962180;28;20027;-75
2021/11/01 04:03:25;;;;;;;14.50;8.35;;;;;;;6.49;52.59;93807.03;4974668;28;20054;-75
2021/11/01 04:05:54;;;;;;;17.42;8.23;;;;;;;6.42;52.54;93807.41;4964362;28;20416;-75
2021/11/01 04:08:21;;;;;;;14.32;8.18;;;;;;;6.40;52.21;93794.50;4968486;28;20047;-75
2021/11/01 04:10:47;;;;;;;12.23;7.07;;;;;;;6.49;52.47;93810.47;4964112;28;20046;-75
2021/11/01 04:13:13;;;;;;;14.05;8.85;;;;;;;6.43;52.67;93824.81;4970250;28;20030;-76
2021/11/01 04:15:44;;;;;;;12.00;7.47;;;;;;;6.53;52.48;93805.38;4969625;28;20046;-75
2021/11/01 04:18:12;;;;;;;12.35;7.22;;;;;;;6.54;52.33;93810.41;4963094;28;20431;-75
2021/11/01 04:21:10;;;;;;;18.88;8.85;;;;;;;6.38;52.37;93779.97;4967868;28;20057;-76
2021/11/01 04:23:31;;;;;;;11.88;6.68;;;;;;;6.50;51.79;93780.34;4960493;28;20043;-75
2021/11/01 04:25:59;;;;;;;14.02;7.68;;;;;;;6.39;52.17;93779.72;4958691;28;20093;-74
2021/11/01 04:28:24;;;;;;;11.25;6.10;;;;;;;6.64;51.86;93783.81;4961445;28;20547;-74
2021/11/01 04:30:58;;;;;;;10.35;6.85;;;;;;;6.64;51.61;93789.09;4969090;28;20030;-75
2021/11/01 04:33:25;;;;;;;13.45;7.90;;;;;;;6.56;51.83;93787.09;4965229;28;20524;-74
2021/11/01 04:35:50;;;;;;;18.15;7.70;;;;;;;6.66;51.75;93791.44;4965179;28;20398;-75
2021/11/01 04:38:29;;;;;;;10.45;6.72;;;;;;;6.65;51.68;93792.53;4962766;28;20057;-74
2021/11/01 04:41:03;;;;;;;13.57;7.00;;;;;;;6.60;51.77;93787.31;4966242;28;20081;-75
2021/11/01 04:43:55;;;;;;;10.80;6.82;;;;;;;6.47;51.41;93762.41;4960687;28;20441;-75
2021/11/01 04:54:29;;;;;;;11.30;7.72;;;;;;;6.56;51.37;93796.88;4965258;28;20548;-74
2021/11/01 04:56:54;;;;;;;11.43;6.70;;;;;;;6.38;51.75;93769.41;4965451;28;20300;-74
2021/11/01 04:59:21;;;;;;;14.52;7.50;;;;;;;6.53;51.51;93782.41;4965470;28;20050;-74
2021/11/01 05:01:50;;;;;;;11.07;7.28;;;;;;;6.54;51.37;93794.53;4957207;28;20417;-75
2021/11/01 05:04:20;;;;;;;12.50;7.22;;;;;;;6.42;51.60;93775.69;4966962;28;20030;-76
2021/11/01 05:06:52;;;;;;;12.63;7.43;;;;;;;6.34;51.29;93768.44;4963358;28;20042;-74
2021/11/01 05:09:24;;;;;;;14.55;8.23;;;;;;;6.47;51.52;93788.81;4966338;28;20101;-75
2021/11/01 05:14:21;;;;;;;14.07;7.63;;;;;;;6.45;51.79;93791.00;4963545;28;20104;-74
2021/11/01 05:21:53;;;;;;;14.43;8.10;;;;;;;6.37;51.84;93779.19;4958556;28;20050;-76
2021/11/01 05:24:46;;;;;;;13.45;8.35;;;;;;;6.67;51.15;93798.28;4964425;28;20400;-74
2021/11/01 05:29:48;;;;;;;14.90;8.75;;;;;;;6.58;51.07;93800.81;4964471;28;20045;-74
2021/11/01 05:32:18;;;;;;;18.25;8.80;;;;;;;6.48;51.51;93785.13;4967010;28;20160;-74
2021/11/01 05:34:45;;;;;;;14.57;7.90;;;;;;;6.34;51.92;93758.66;4957467;28;20046;-74
2021/11/01 05:37:11;;;;;;;14.82;9.38;;;;;;;6.58;51.78;93792.88;4963264;28;20049;-74
2021/11/01 05:39:38;;;;;;;17.45;9.95;;;;;;;6.58;51.91;93792.09;4957587;28;20046;-75
2021/11/01 05:42:05;;;;;;;21.70;11.00;;;;;;;6.55;52.14;93777.63;4961869;28;20069;-75
2021/11/01 05:44:30;;;;;;;27.50;14.15;;;;;;;6.71;52.32;93794.78;4965746;28;20038;-75
2021/11/01 05:46:56;;;;;;;24.20;13.60;;;;;;;6.77;52.68;93788.34;4991383;28;20506;-76
2021/11/01 05:49:23;;;;;;;22.58;12.05;;;;;;;6.81;51.92;93793.84;4961550;28;20401;-75
2021/11/01 05:51:51;;;;;;;22.80;12.45;;;;;;;6.89;52.05;93805.63;4994361;28;20014;-76
2021/11/01 05:54:20;;;;;;;21.73;11.30;;;;;;;6.82;52.08;93793.56;4962360;28;20034;-75
2021/11/01 06:07:19;;;;;;;23.33;14.20;;;;;;;7.24;52.48;93799.69;4965421;28;20409;-74
2021/11/01 06:14:58;;;;;;;77.82;33.15;;;;;;;7.42;52.54;93814.75;4956323;28;20565;-74
2021/11/01 06:17:23;;;;;;;32.13;17.50;;;;;;;7.51;52.37;93825.41;4958128;28;20034;-74
2021/11/01 06:19:48;;;;;;;33.90;17.33;;;;;;;7.57;52.37;93826.91;4962650;28;20109;-75
2021/11/01 06:22:14;;;;;;;26.40;15.55;;;;;;;7.55;52.35;93811.31;4969073;28;20054;-75
2021/11/01 06:27:13;;;;;;;26.15;13.98;;;;;;;7.66;52.26;93810.03;4960567;28;20035;-74
2021/11/01 06:32:29;;;;;;;28.27;15.03;;;;;;;7.38;53.99;93821.69;4965145;28;20402;-74
2021/11/01 06:51:14;;;;;;;41.42;21.10;;;;;;;7.85;53.79;93825.84;4961457;28;20072;-75
2021/11/01 06:58:53;;;;;;;28.70;16.20;;;;;;;7.94;53.49;93816.13;4964625;28;20186;-73
2021/11/01 07:15:10;;;;;;;29.52;15.13;;;;;;;8.20;52.91;93800.50;4963228;28;20109;-74
2021/11/01 07:17:43;;;;;;;;;;;;;;;8.49;52.44;93806.22;4961026;28;20082;-75
2021/11/01 08:22:49;;;;;;;29.98;16.48;;;;;;;7.48;60.96;93781.03;4959972;28;20058;-74
2021/11/01 09:13:31;;;;;;;28.48;15.18;;;;;;;9.99;52.64;93724.84;4961058;28;20027;-75
2021/11/01 09:18:46;;;;;;;31.40;15.70;;;;;;;8.77;56.15;93747.75;4962858;28;20054;-75
2021/11/01 09:23:46;;;;;;;32.53;15.38;;;;;;;9.89;53.68;93741.06;4962205;28;20508;-75
2021/11/01 09:28:51;;;;;;;29.08;16.08;;;;;;;9.53;54.29;93738.66;4963231;28;20023;-75
2021/11/01 09:41:49;;;;;;;35.92;18.10;;;;;;;9.50;54.42;93686.16;4959085;28;20509;-75
2021/11/01 09:44:22;;;;;;;39.60;19.73;;;;;;;9.80;54.19;93711.06;4965501;28;20045;-75
2021/11/01 09:46:47;;;;;;;35.15;18.60;;;;;;;8.88;55.93;93682.78;4959392;28;20121;-75
2021/11/01 09:49:16;;;;;;;32.72;17.27;;;;;;;8.94;55.98;93679.72;4955672;28;20033;-76
2021/11/01 09:51:44;;;;;;;34.83;17.52;;;;;;;9.53;54.85;93700.69;4961759;28;20043;-75
2021/11/01 09:54:19;;;;;;;35.00;17.58;;;;;;;9.32;54.23;93673.94;4964327;28;20046;-76
2021/11/01 09:56:57;;;;;;;34.78;17.90;;;;;;;9.64;54.50;93686.81;4960458;28;20222;-75
2021/11/01 09:59:34;;;;;;;35.78;18.25;;;;;;;9.15;55.55;93671.22;4962694;28;20075;-76
2021/11/01 10:02:00;;;;;;;38.35;19.50;;;;;;;9.71;54.38;93659.81;4962661;28;20437;-76
2021/11/01 10:04:32;;;;;;;33.78;17.20;;;;;;;10.18;53.17;93674.03;4964332;28;20117;-75
2021/11/01 10:07:44;;;;;;;30.70;16.75;;;;;;;9.60;54.35;93680.56;4959273;28;20081;-75
2021/11/01 10:10:11;;;;;;;25.10;14.73;;;;;;;9.57;55.00;93675.09;4964803;28;20054;-74
2021/11/01 10:12:40;;;;;;;36.55;16.85;;;;;;;9.82;54.82;93677.78;4960303;28;20202;-76
2021/11/01 10:18:00;;;;;;;31.08;15.43;;;;;;;10.27;54.33;93649.00;4959076;28;20057;-76
2021/11/01 10:20:27;;;;;;;32.13;16.00;;;;;;;10.41;52.66;93666.72;4955663;28;20054;-76
2021/11/01 10:22:54;;;;;;;30.50;16.30;;;;;;;10.25;52.70;93658.41;4962898;28;20190;-76
2021/11/01 10:25:22;;;;;;;26.67;14.18;;;;;;;10.59;51.55;93629.16;4976848;28;20033;-75
2021/11/01 10:27:56;;;;;;;31.33;16.25;;;;;;;10.66;51.45;93644.63;4958925;28;20053;-76
2021/11/01 10:30:28;;;;;;;34.37;17.77;;;;;;;9.96;53.09;93635.13;4963658;28;20115;-75
2021/11/01 10:32:55;;;;;;;28.85;16.40;;;;;;;10.66;51.92;93647.28;4964469;28;20794;-75
2021/11/01 10:35:43;;;;;;;32.17;18.55;;;;;;;10.16;52.63;93618.56;4968622;28;20039;-75
2021/11/01 10:38:32;;;;;;;26.55;14.80;;;;;;;9.55;53.99;93640.09;4959013;28;20149;-75
2021/11/01 10:41:25;;;;;;;34.88;16.80;;;;;;;10.19;53.03;93628.56;4962915;28;20459;-75
2021/11/01 11:30:30;;;;;;;;;;;;;;;10.39;50.53;93578.50;4964774;28;20070;-76
2021/11/01 11:47:39;;;;;;;22.77;10.57;;;;;;;10.26;49.81;93559.75;4960785;28;20041;-75
2021/11/01 11:50:17;;;;;;;19.98;12.02;;;;;;;9.99;48.88;93525.56;4959209;28;20039;-76
2021/11/01 11:52:43;;;;;;;17.30;10.43;;;;;;;9.94;48.02;93525.75;4968972;28;20111;-76
2021/11/01 11:55:18;;;;;;;22.08;12.10;;;;;;;10.09;49.12;93562.44;4962377;28;20473;-75
2021/11/01 11:57:43;;;;;;;;;;;;;;;9.99;49.11;93554.81;4962525;28;20042;-76
2021/11/01 12:00:12;;;;;;;20.45;10.45;;;;;;;10.29;48.72;93535.19;4962892;28;19922;-75
2021/11/01 12:02:42;;;;;;;18.10;9.85;;;;;;;10.61;47.65;93538.41;4960052;28;20527;-75
2021/11/01 12:05:13;;;;;;;16.75;9.73;;;;;;;10.31;47.67;93538.34;4958135;28;20509;-76
2021/11/01 12:07:52;;;;;;;21.73;11.48;;;;;;;10.76;47.50;93540.50;4953425;28;20464;-76
2021/11/01 12:10:49;;;;;;;15.27;9.82;;;;;;;10.88;46.75;93531.88;4956997;28;20027;-75
2021/11/01 12:13:12;;;;;;;21.17;11.40;;;;;;;10.65;47.11;93480.81;4961879;28;20053;-77
2021/11/01 12:18:36;;;;;;;20.15;11.25;;;;;;;11.06;47.48;93515.47;4963838;28;20045;-77
2021/11/01 12:21:02;;;;;;;17.73;10.57;;;;;;;10.64;47.82;93505.84;4963565;28;20051;-76
2021/11/01 12:23:35;;;;;;;21.73;10.98;;;;;;;10.82;47.84;93503.88;4962612;28;20417;-75
2021/11/01 12:26:14;;;;;;;21.02;11.55;;;;;;;10.89;48.46;93518.25;4961077;28;20053;-75
2021/11/01 12:28:44;;;;;;;23.40;11.88;;;;;;;10.78;48.49;93521.59;4960994;28;20074;-75
2021/11/01 12:31:12;;;;;;;24.08;12.13;;;;;;;11.13;48.33;93515.75;4957560;28;20022;-74
2021/11/01 12:33:42;;;;;;;20.35;11.32;;;;;;;11.11;48.68;93509.19;4965933;28;20057;-74
2021/11/01 12:36:09;;;;;;;22.80;11.88;;;;;;;11.12;48.42;93506.22;4961795;28;20037;-74
2021/11/01 12:38:48;;;;;;;22.63;12.07;;;;;;;11.03;48.36;93492.19;4960764;28;20050;-75
2021/11/01 12:47:34;;;;;;;18.70;10.13;;;;;;;11.09;46.56;93498.09;4961621;28;20121;-75
2021/11/01 12:58:04;;;;;;;19.35;11.65;;;;;;;10.99;46.62;93472.66;4958945;28;20053;-75
2021/11/01 13:00:40;;;;;;;17.90;10.93;;;;;;;11.63;46.12;93485.66;4958337;28;20045;-74
2021/11/01 13:03:23;;;;;;;21.65;10.50;;;;;;;11.49;45.78;93442.50;4959934;28;20054;-74
2021/11/01 13:05:54;;;;;;;20.77;11.00;;;;;;;11.84;45.25;93462.41;4962175;28;20038;-76
2021/11/01 13:08:31;;;;;;;18.65;10.52;;;;;;;11.70;45.58;93477.91;4966239;28;20042;-75
2021/11/01 13:14:28;;;;;;;20.17;10.13;;;;;;;11.52;46.85;93479.16;4964406;28;20038;-75
2021/11/01 13:19:33;;;;;;;21.10;12.63;;;;;;;12.30;44.93;93476.50;4961138;28;20512;-76
2021/11/01 13:22:05;;;;;;;17.25;10.25;;;;;;;12.11;45.19;93465.59;4962513;28;20033;-75
2021/11/01 13:24:55;;;;;;;18.20;10.85;;;;;;;11.44;46.82;93467.44;4960972;28;20319;-76
2021/11/01 13:37:42;;;;;;;22.40;11.82;;;;;;;12.16;46.01;93462.72;4960268;28;21550;-75
2021/11/01 13:40:11;;;;;;;20.23;10.15;;;;;;;12.23;45.95;93407.72;4965292;28;20650;-75
2021/11/01 13:42:41;;;;;;;17.10;9.60;;;;;;;13.08;43.79;93462.97;4970756;28;20041;-75
2021/11/01 13:45:11;;;;;;;18.25;9.85;;;;;;;13.34;43.52;93468.69;4961111;28;20093;-75
2021/11/01 13:47:47;;;;;;;15.63;10.55;;;;;;;13.58;42.84;93463.28;4960659;28;20038;-76
2021/11/01 13:50:17;;;;;;;18.92;9.77;;;;;;;13.74;42.69;93464.13;4960619;28;20528;-75
2021/11/01 13:52:53;;;;;;;21.02;10.43;;;;;;;13.90;42.20;93453.47;4964472;28;20052;-76
2021/11/01 13:55:31;;;;;;;13.98;9.20;;;;;;;13.89;42.04;93433.19;4957066;28;20907;-75
2021/11/01 13:58:07;;;;;;;16.85;10.75;;;;;;;14.18;41.50;93432.03;4962777;28;20615;-75
2021/11/01 14:03:27;;;;;;;13.95;9.23;;;;;;;14.37;41.29;93439.38;4958868;28;20816;-75
2021/11/01 14:17:15;;;;;;;14.17;8.70;;;;;;;14.43;40.31;93449.47;4957069;28;20045;-75
2021/11/01 14:27:20;;;;;;;13.40;7.93;;;;;;;14.07;40.47;93452.38;4966207;28;20113;-75
2021/11/01 15:15:15;;;;;;;20.35;9.70;;;;;;;13.05;41.20;93429.72;4960837;28;20131;-75
2021/11/01 15:22:55;;;;;;;20.15;9.45;;;;;;;12.88;40.97;93427.28;4955104;28;20161;-75
2021/11/01 16:19:13;;;;;;;15.90;9.15;;;;;;;11.88;41.48;93410.00;4943357;28;20446;-75
2021/11/01 16:21:38;;;;;;;13.05;7.20;;;;;;;12.10;41.92;93430.16;4956815;28;20031;-74
2021/11/01 16:24:04;;;;;;;13.20;8.00;;;;;;;12.09;41.78;93430.47;4957714;28;20125;-74
2021/11/01 16:26:32;;;;;;;11.82;7.43;;;;;;;11.65;41.68;93427.50;4961958;28;20045;-74
2021/11/01 16:29:11;;;;;;;13.57;7.55;;;;;;;11.64;42.00;93415.28;4956810;28;20604;-76
2021/11/01 16:34:19;;;;;;;12.80;7.78;;;;;;;11.87;42.04;93429.00;4963921;28;20145;-75
2021/11/01 16:39:25;;;;;;;13.52;7.03;;;;;;;11.69;42.38;93433.72;4960073;28;20053;-76
2021/11/01 16:41:52;;;;;;;12.98;7.97;;;;;;;11.79;42.38;93427.97;4949786;28;20136;-75
2021/11/01 16:44:23;;;;;;;16.77;8.70;;;;;;;11.80;42.35;93424.22;4960734;28;20050;-75
2021/11/01 16:46:50;;;;;;;14.10;7.57;;;;;;;11.77;42.67;93434.75;4958907;28;20043;-75
2021/11/01 16:49:17;;;;;;;22.08;12.18;;;;;;;11.60;42.76;93428.47;4956623;28;20034;-75
2021/11/01 16:51:44;;;;;;;31.35;18.83;;;;;;;11.52;43.44;93425.91;4960876;28;20401;-75
2021/11/01 16:54:13;;;;;;;20.77;12.20;;;;;;;11.49;43.26;93426.53;4957372;28;20034;-76
2021/11/01 16:59:36;;;;;;;16.20;9.40;;;;;;;11.62;43.52;93425.50;4957397;28;20557;-75
2021/11/01 17:02:09;;;;;;;15.73;10.45;;;;;;;11.70;43.39;93429.16;4964038;28;20049;-75
2021/11/01 17:04:38;;;;;;;15.85;8.50;;;;;;;11.56;43.48;93427.56;4964283;28;20029;-75
2021/11/01 17:07:19;;;;;;;15.30;9.35;;;;;;;11.67;43.82;93435.94;4965952;28;20022;-75
2021/11/01 18:40:34;;;;;;;25.58;10.77;;;;;;;10.36;46.51;93478.13;4963765;28;20038;-75
2021/11/01 18:51:03;;;;;;;21.00;12.07;;;;;;;10.27;46.73;93486.88;4959572;28;20045;-76
2021/11/01 18:53:35;;;;;;;32.03;15.65;;;;;;;10.13;47.03;93491.63;4956175;28;20099;-76
2021/11/01 18:56:04;;;;;;;33.28;17.05;;;;;;;9.81;48.23;93500.16;4961235;28;20073;-75
2021/11/01 18:58:31;;;;;;;39.75;19.25;;;;;;;9.80;48.50;93503.88;4956190;28;20035;-76
2021/11/01 19:00:58;;;;;;;44.88;19.48;;;;;;;9.68;47.96;93487.84;4957620;28;20058;-75
2021/11/01 19:03:26;;;;;;;32.75;17.70;;;;;;;9.78;48.06;93501.53;4952391;28;20480;-75
2021/11/01 19:06:10;;;;;;;26.85;15.73;;;;;;;9.84;48.06;93502.94;4958667;28;20543;-73
2021/11/01 19:08:51;;;;;;;23.05;13.10;;;;;;;9.76;48.09;93500.31;4953889;28;20569;-74
2021/11/01 20:06:58;;;;;;;27.85;17.10;;;;;;;9.38;48.61;93516.13;4953852;28;20034;-74
2021/11/01 20:15:17;;;;;;;27.13;15.23;;;;;;;9.30;48.80;93503.59;4958541;28;20189;-75
2021/11/01 21:27:07;;;;;;;25.08;13.02;;;;;;;8.57;50.24;93458.25;5000077;28;20072;-77
2021/11/01 21:29:35;;;;;;;19.77;10.82;;;;;;;8.38;50.43;93439.19;5004106;28;20052;-77
2021/11/01 21:32:03;;;;;;;24.73;11.18;;;;;;;8.77;49.88;93456.88;5002174;28;20164;-77
2021/11/01 21:34:36;;;;;;;24.23;12.30;;;;;;;8.55;50.18;93449.03;5005873;28;20328;-77
2021/11/01 21:37:04;;;;;;;19.75;9.93;;;;;;;8.44;50.00;93437.94;4999513;28;20064;-78
2021/11/01 21:39:30;;;;;;;18.48;9.40;;;;;;;8.58;49.98;93443.91;5004980;28;20538;-78
2021/11/01 21:41:56;;;;;;;16.17;9.18;;;;;;;8.58;49.65;93446.56;5002741;28;20041;-76
2021/11/01 21:44:22;;;;;;;19.25;8.95;;;;;;;8.67;49.36;93443.91;4995508;28;20454;-77
2021/11/01 21:46:49;;;;;;;17.73;10.00;;;;;;;8.45;49.70;93428.91;5000997;28;20046;-76
2021/11/01 21:49:14;;;;;;;16.42;8.70;;;;;;;8.59;49.57;93429.56;5004431;28;20034;-77
2021/11/01 21:51:42;;;;;;;20.90;10.23;;;;;;;8.61;49.66;93423.19;5002480;28;20049;-78
2021/11/01 21:56:37;;;;;;;18.48;8.85;;;;;;;8.52;49.34;93415.97;5003623;28;20038;-77
2021/11/01 22:10:04;;;;;;;19.27;11.18;;;;;;;8.72;48.80;93405.88;5005947;28;20408;-76
2021/11/01 22:20:36;;;;;;;22.77;13.57;;;;;;;8.01;50.02;93365.53;5003267;28;20033;-78
2021/11/01 22:33:36;;;;;;;17.17;11.27;;;;;;;8.31;49.78;93400.97;5006739;28;20156;-78
2021/11/01 22:39:21;;;;;;;14.68;9.35;;;;;;;7.94;50.57;93370.47;5007799;28;20064;-76
2021/11/01 22:47:19;;;;;;;18.40;11.15;;;;;;;8.11;50.47;93387.22;5003197;28;20509;-77
2021/11/01 22:55:37;;;;;;;21.33;10.65;;;;;;;7.98;50.73;93360.81;4994869;28;21011;-77
2021/11/01 22:58:03;;;;;;;21.25;11.65;;;;;;;8.05;50.56;93366.47;5003137;28;20066;-78
2021/11/01 23:00:40;;;;;;;20.13;12.02;;;;;;;8.09;50.72;93381.44;5004713;28;20123;-77
2021/11/01 23:03:11;;;;;;;24.10;13.73;;;;;;;7.90;51.17;93359.72;5010041;28;20491;-78
2021/11/01 23:33:00;;;;;;;23.58;13.55;;;;;;;7.88;50.61;93339.91;5005912;28;20052;-76
2021/11/01 23:35:26;;;;;;;25.88;12.93;;;;;;;7.78;50.49;93327.00;5004834;28;20411;-77
2021/11/01 23:37:51;;;;;;;22.98;13.30;;;;;;;7.77;50.81;93320.91;5001752;28;20045;-78
2021/11/01 23:40:17;;;;;;;20.13;11.55;;;;;;;7.66;50.64;93296.56;5005756;28;20038;-78
2021/11/01 23:42:42;;;;;;;23.27;11.48;;;;;;;7.76;50.83;93322.00;5002508;28;20195;-77
2021/11/01 23:45:08;;;;;;;18.98;11.43;;;;;;;7.46;50.95;93286.53;5003724;28;20455;-78
2021/11/01 23:47:34;;;;;;;23.90;9.70;;;;;;;7.27;51.33;93288.63;5004183;28;20042;-77
2021/11/01 23:50:00;;;;;;;20.50;11.35;;;;;;;7.69;51.21;93322.41;5001042;28;20499;-77
2021/11/01 23:52:25;;;;;;;16.77;9.57;;;;;;;7.82;51.02;93322.63;5005980;28;20033;-77
2021/11/01 23:54:51;;;;;;;19.50;9.75;;;;;;;7.80;50.66;93322.16;5005739;28;20021;-78
2021/11/01 23:57:20;;;;;;;20.45;11.07;;;;;;;7.82;50.84;93320.00;5001556;28;20112;-77
2021/11/01 23:59:48;;;;;;;20.67;11.07;;;;;;;7.75;50.84;93315.13;5003128;28;20095;-77
